Xanthos — A8FJ4 — position and weather

sailwx.info

Track history (hours):
 
Tides and Currents Weather Stations Pressure Air Temp Water Temp Dewpoint Dewpoint Depression Visibility Wind Speed Wind Dir Waves Ship Positions

Xanthos

Last reported at 2018-Jul-16 02:30 UTC. Time now 2018-Jul-16 02:31 UTC.
Position N 29°14' W 094°34'.

Length 213 m; draft 9.4 m.

Type: Tanker. MMSI: 636012425.

Date/timePositionNaut miles runAvg speedWind from/ knotsBaromVisibWave heightAir tempDewpointWater temp
2018-Jul-16 02:30N 29°14' W 094°34'510.2
2018-Jul-16 02:00N 29°18' W 094°37'511.0
2018-Jul-16 01:30N 29°21' W 094°43'510.0
2018-Jul-16 01:00N 29°23' W 094°48'510.4
2018-Jul-16 00:30N 29°27' W 094°51'510.1
2018-Jul-16 00:00N 29°32' W 094°54'510.0
2018-Jul-15 23:30N 29°36' W 094°57'5 9.9
2018-Jul-15 23:00N 29°40' W 094°59'4 7.4
2018-Jul-15 22:30N 29°43' W 095°01'4 7.5
2018-Jul-15 22:00N 29°46' W 095°05'2 0.0
2018-Jul-14 07:29N 29°45' W 095°06'1 1.9
2018-Jul-14 07:00N 29°46' W 095°05'3 6.8
2018-Jul-14 06:31N 29°44' W 095°02'4 7.0
2018-Jul-14 06:00N 29°41' W 094°59'5 9.5
2018-Jul-14 05:30N 29°37' W 094°57'510.5
2018-Jul-14 05:01N 29°32' W 094°54'510.0
2018-Jul-14 04:30N 29°28' W 094°51'5 9.6
2018-Jul-14 04:00N 29°24' W 094°49'4 8.3
2018-Jul-14 03:31N 29°21' W 094°46'3 5.9
2018-Jul-14 02:57N 29°21' W 094°42'0 0.0
2018-Jul-14 02:24N 29°21' W 094°42'0 0.0
2018-Jul-14 01:45N 29°21' W 094°42'0 0.1
2018-Jul-14 01:27N 29°21' W 094°42'0 0.0
2018-Jul-14 00:57N 29°21' W 094°42'0 0.0
2018-Jul-14 00:21N 29°21' W 094°42'0 0.0
2018-Jul-13 23:45N 29°21' W 094°42'0 0.0
2018-Jul-13 23:27N 29°21' W 094°42'0 0.1
2018-Jul-13 23:00N 29°21' W 094°42'0 0.0
2018-Jul-13 22:30N 29°21' W 094°42'0 0.0
2018-Jul-13 21:57N 29°21' W 094°42'0 0.0
2018-Jul-13 21:27N 29°21' W 094°42'0 0.0
2018-Jul-13 20:57N 29°21' W 094°42'0 0.0
2018-Jul-13 20:27N 29°21' W 094°42'0 0.1
2018-Jul-13 20:00N 29°21' W 094°42'0 0.0
2018-Jul-13 19:30N 29°21' W 094°42'0 0.2
2018-Jul-13 19:00N 29°21' W 094°42'2 4.4
2018-Jul-13 18:30N 29°20' W 094°40'5 9.2
2018-Jul-13 18:00N 29°18' W 094°35'2 1.0
2018-Jul-13 15:29N 29°19' W 094°33'0 0.0
2018-Jul-13 14:59N 29°19' W 094°33'0 0.0
2018-Jul-13 14:29N 29°18' W 094°33'0 0.0
2018-Jul-13 06:38N 29°19' W 094°33'0 0.0
2018-Jul-13 06:23N 29°19' W 094°33'0 0.0
2018-Jul-13 05:56N 29°19' W 094°33'0 0.0
2018-Jul-13 05:23N 29°19' W 094°33'0 0.0
2018-Jul-13 04:56N 29°19' W 094°33'0 0.0
2018-Jul-13 04:23N 29°19' W 094°33'0 0.0
2018-Jul-13 03:53N 29°19' W 094°33'0 0.0
2018-Jul-13 03:29N 29°19' W 094°33'0 0.0
2018-Jul-13 00:59N 29°19' W 094°33'0 0.2
2018-Jul-13 00:29N 29°18' W 094°33'0 0.2
2018-Jul-12 23:56N 29°18' W 094°33'1 1.3
2018-Jul-12 23:28N 29°18' W 094°32'3 5.5
2018-Jul-12 22:59N 29°15' W 094°32'5 9.6
2018-Jul-12 22:30N 29°12' W 094°28'  
2018-Jul-06 15:54N 28°49' W 094°26'1412.4
2018-Jul-06 14:45N 29°03' W 094°26'312.2
2018-Jul-06 14:30N 29°06' W 094°25'611.7
2018-Jul-06 13:59N 29°11' W 094°30'611.9
2018-Jul-06 13:30N 29°15' W 094°34'510.5
2018-Jul-06 13:00N 29°19' W 094°38'510.2
2018-Jul-06 12:30N 29°21' W 094°44'5 9.7
2018-Jul-06 12:00N 29°23' W 094°49'510.7
2018-Jul-06 11:30N 29°28' W 094°51'510.5
2018-Jul-06 11:00N 29°32' W 094°54'510.4
2018-Jul-06 10:30N 29°37' W 094°57'5 9.5
2018-Jul-06 10:00N 29°41' W 094°59'4 7.1
2018-Jul-06 09:30N 29°44' W 095°02'3 6.2
2018-Jul-06 08:58N 29°45' W 095°06'1 1.3
2018-Jul-06 08:31N 29°45' W 095°06'  
Track history (hours):
 
Tides and Currents Weather Stations Pressure Air Temp Water Temp Dewpoint Dewpoint Depression Visibility Wind Speed Wind Dir Waves Ship Positions

Xanthos

Last reported at 2018-Jul-16 02:30 UTC. Time now 2018-Jul-16 02:31 UTC.
Position N 29°14' W 094°34'.

Length 213 m; draft 9.4 m.

Type: Tanker. MMSI: 636012425.

Date/timePositionNaut miles runAvg speedWind from/ knotsBaromVisibWave heightAir tempDewpointWater temp
2018-Jul-16 02:30N 29°14' W 094°34'510.2
2018-Jul-16 02:00N 29°18' W 094°37'511.0
2018-Jul-16 01:30N 29°21' W 094°43'510.0
2018-Jul-16 01:00N 29°23' W 094°48'510.4
2018-Jul-16 00:30N 29°27' W 094°51'510.1
2018-Jul-16 00:00N 29°32' W 094°54'510.0
2018-Jul-15 23:30N 29°36' W 094°57'5 9.9
2018-Jul-15 23:00N 29°40' W 094°59'4 7.4
2018-Jul-15 22:30N 29°43' W 095°01'4 7.5
2018-Jul-15 22:00N 29°46' W 095°05'2 0.0
2018-Jul-14 07:29N 29°45' W 095°06'1 1.9
2018-Jul-14 07:00N 29°46' W 095°05'3 6.8
2018-Jul-14 06:31N 29°44' W 095°02'4 7.0
2018-Jul-14 06:00N 29°41' W 094°59'5 9.5
2018-Jul-14 05:30N 29°37' W 094°57'510.5
2018-Jul-14 05:01N 29°32' W 094°54'510.0
2018-Jul-14 04:30N 29°28' W 094°51'5 9.6
2018-Jul-14 04:00N 29°24' W 094°49'4 8.3
2018-Jul-14 03:31N 29°21' W 094°46'3 5.9
2018-Jul-14 02:57N 29°21' W 094°42'0 0.0
2018-Jul-14 02:24N 29°21' W 094°42'0 0.0
2018-Jul-14 01:45N 29°21' W 094°42'0 0.1
2018-Jul-14 01:27N 29°21' W 094°42'0 0.0
2018-Jul-14 00:57N 29°21' W 094°42'0 0.0
2018-Jul-14 00:21N 29°21' W 094°42'0 0.0
2018-Jul-13 23:45N 29°21' W 094°42'0 0.0
2018-Jul-13 23:27N 29°21' W 094°42'0 0.1
2018-Jul-13 23:00N 29°21' W 094°42'0 0.0
2018-Jul-13 22:30N 29°21' W 094°42'0 0.0
2018-Jul-13 21:57N 29°21' W 094°42'0 0.0
2018-Jul-13 21:27N 29°21' W 094°42'0 0.0
2018-Jul-13 20:57N 29°21' W 094°42'0 0.0
2018-Jul-13 20:27N 29°21' W 094°42'0 0.1
2018-Jul-13 20:00N 29°21' W 094°42'0 0.0
2018-Jul-13 19:30N 29°21' W 094°42'0 0.2
2018-Jul-13 19:00N 29°21' W 094°42'2 4.4
2018-Jul-13 18:30N 29°20' W 094°40'5 9.2
2018-Jul-13 18:00N 29°18' W 094°35'2 1.0
2018-Jul-13 15:29N 29°19' W 094°33'0 0.0
2018-Jul-13 14:59N 29°19' W 094°33'0 0.0
2018-Jul-13 14:29N 29°18' W 094°33'0 0.0
2018-Jul-13 06:38N 29°19' W 094°33'0 0.0
2018-Jul-13 06:23N 29°19' W 094°33'0 0.0
2018-Jul-13 05:56N 29°19' W 094°33'0 0.0
2018-Jul-13 05:23N 29°19' W 094°33'0 0.0
2018-Jul-13 04:56N 29°19' W 094°33'0 0.0
2018-Jul-13 04:23N 29°19' W 094°33'0 0.0
2018-Jul-13 03:53N 29°19' W 094°33'0 0.0
2018-Jul-13 03:29N 29°19' W 094°33'0 0.0
2018-Jul-13 00:59N 29°19' W 094°33'0 0.2
2018-Jul-13 00:29N 29°18' W 094°33'0 0.2
2018-Jul-12 23:56N 29°18' W 094°33'1 1.3
2018-Jul-12 23:28N 29°18' W 094°32'3 5.5
2018-Jul-12 22:59N 29°15' W 094°32'5 9.6
2018-Jul-12 22:30N 29°12' W 094°28'  
2018-Jul-06 15:54N 28°49' W 094°26'1412.4
2018-Jul-06 14:45N 29°03' W 094°26'312.2
2018-Jul-06 14:30N 29°06' W 094°25'611.7
2018-Jul-06 13:59N 29°11' W 094°30'611.9
2018-Jul-06 13:30N 29°15' W 094°34'510.5
2018-Jul-06 13:00N 29°19' W 094°38'510.2
2018-Jul-06 12:30N 29°21' W 094°44'5 9.7
2018-Jul-06 12:00N 29°23' W 094°49'510.7
2018-Jul-06 11:30N 29°28' W 094°51'510.5
2018-Jul-06 11:00N 29°32' W 094°54'510.4
2018-Jul-06 10:30N 29°37' W 094°57'5 9.5
2018-Jul-06 10:00N 29°41' W 094°59'4 7.1
2018-Jul-06 09:30N 29°44' W 095°02'3 6.2
2018-Jul-06 08:58N 29°45' W 095°06'1 1.3
2018-Jul-06 08:31N 29°45' W 095°06'  

Dump ship's entire track history